createdAt,value
2018-11-29T00:00:32.667Z,51.60
2018-11-29T00:03:01.264Z,53.63
2018-11-29T00:05:29.739Z,55.57
2018-11-29T00:07:58.193Z,57.07
2018-11-29T00:10:27.021Z,50.63
2018-11-29T00:12:55.539Z,54.13
2018-11-29T00:15:24.075Z,57.30
2018-11-29T00:17:53.323Z,54.40
2018-11-29T00:20:22.593Z,62.00
2018-11-29T00:22:52.021Z,58.53
2018-11-29T00:25:21.832Z,52.33
2018-11-29T00:27:51.427Z,53.55
2018-11-29T00:30:23.274Z,64.57
2018-11-29T00:32:55.976Z,55.97
2018-11-29T00:35:24.472Z,55.50
2018-11-29T00:37:53.500Z,56.33
2018-11-29T00:40:22.916Z,56.68
2018-11-29T00:42:51.774Z,59.00
2018-11-29T00:45:22.696Z,52.13
2018-11-29T00:47:51.632Z,55.83
2018-11-29T00:50:21.388Z,57.17
2018-11-29T00:52:51.926Z,56.73
2018-11-29T00:55:23.272Z,60.60
2018-11-29T00:57:52.400Z,54.40
2018-11-29T01:00:25.464Z,56.68
2018-11-29T01:02:54.155Z,56.00
2018-11-29T01:05:22.655Z,61.15
2018-11-29T01:07:51.307Z,63.90
2018-11-29T01:10:20.063Z,56.18
2018-11-29T01:12:49.244Z,54.83
2018-11-29T01:15:19.891Z,52.83
2018-11-29T01:17:49.316Z,55.88
2018-11-29T01:20:19.743Z,54.67
2018-11-29T01:22:48.871Z,58.50
2018-11-29T01:25:17.911Z,48.40
2018-11-29T01:27:47.347Z,53.05
2018-11-29T01:30:18.570Z,51.14
2018-11-29T01:32:47.639Z,55.07
2018-11-29T01:35:19.071Z,52.77
2018-11-29T01:37:47.639Z,52.13
2018-11-29T01:40:21.317Z,50.75
2018-11-29T01:42:54.720Z,55.07
2018-11-29T01:45:23.188Z,51.45
2018-11-29T01:47:51.648Z,59.00
2018-11-29T01:50:20.174Z,58.47
2018-11-29T01:52:48.618Z,58.53
2018-11-29T01:55:17.440Z,56.54
2018-11-29T01:57:45.925Z,52.10
2018-11-29T02:04:30.468Z,53.35
2018-11-29T02:06:58.937Z,54.23
2018-11-29T02:09:27.403Z,48.68
2018-11-29T02:11:56.634Z,57.70
2018-11-29T02:14:25.117Z,56.63
2018-11-29T02:16:53.583Z,57.13
2018-11-29T02:19:22.572Z,55.00
2018-11-29T02:21:51.185Z,62.27
2018-11-29T02:24:20.591Z,67.17
2018-11-29T02:26:49.108Z,59.17
2018-11-29T02:29:17.568Z,57.70
2018-11-29T02:31:46.058Z,65.53
2018-11-29T02:39:11.944Z,61.13
2018-11-29T02:41:40.443Z,72.32
2018-11-29T02:44:08.940Z,63.67
2018-11-29T02:46:37.587Z,61.33
2018-11-29T02:49:06.075Z,65.80
2018-11-29T02:51:34.561Z,62.25
2018-11-29T02:54:03.076Z,61.53
2018-11-29T02:56:31.545Z,70.97
2018-11-29T02:59:00.040Z,60.80
2018-11-29T03:01:28.874Z,69.55
2018-11-29T03:03:57.339Z,71.67
2018-11-29T03:06:25.838Z,75.07
2018-11-29T03:08:55.151Z,72.07
2018-11-29T03:11:23.614Z,76.97
2018-11-29T03:13:52.132Z,78.20
2018-11-29T03:16:20.618Z,67.12
2018-11-29T03:18:49.111Z,64.03
2018-11-29T03:21:17.555Z,76.57
2018-11-29T03:23:46.661Z,84.47
2018-11-29T03:31:09.428Z,65.37
2018-11-29T03:33:37.988Z,77.37
2018-11-29T03:36:06.478Z,73.10
2018-11-29T03:38:34.980Z,66.53
2018-11-29T03:41:03.536Z,72.08
2018-11-29T03:43:32.588Z,73.73
2018-11-29T03:46:02.846Z,67.60
2018-11-29T03:48:31.291Z,68.20
2018-11-29T03:50:59.783Z,68.07
2018-11-29T03:53:28.273Z,64.27
2018-11-29T03:55:56.745Z,60.73
2018-11-29T03:58:25.220Z,62.97
2018-11-29T04:00:54.761Z,68.20
2018-11-29T04:03:23.232Z,60.70
2018-11-29T04:05:52.633Z,67.60
2018-11-29T04:08:21.687Z,55.12
2018-11-29T04:10:50.159Z,67.53
2018-11-29T04:13:19.523Z,59.63
2018-11-29T04:15:48.051Z,63.87
2018-11-29T04:18:17.429Z,68.40
2018-11-29T04:20:46.833Z,63.77
2018-11-29T04:28:16.308Z,62.80
2018-11-29T04:30:44.791Z,72.13
2018-11-29T04:33:13.287Z,71.37
2018-11-29T04:35:41.812Z,66.90
2018-11-29T04:38:10.288Z,67.77
2018-11-29T04:40:39.662Z,69.47
2018-11-29T04:43:08.177Z,71.67
2018-11-29T04:45:47.745Z,65.83
2018-11-29T04:48:18.350Z,69.10
2018-11-29T04:50:46.905Z,68.63
2018-11-29T04:58:13.128Z,76.20
2018-11-29T05:00:41.606Z,66.57
2018-11-29T05:03:10.189Z,70.23
2018-11-29T05:05:39.017Z,74.70
2018-11-29T05:08:09.135Z,81.95
2018-11-29T05:10:38.286Z,87.30
2018-11-29T05:13:06.813Z,77.67
2018-11-29T05:15:36.075Z,80.27
2018-11-29T05:18:04.921Z,72.93
2018-11-29T05:20:33.460Z,68.60
2018-11-29T05:23:01.949Z,83.27
2018-11-29T05:25:30.463Z,76.70
2018-11-29T05:27:59.479Z,63.97
2018-11-29T05:30:28.631Z,68.90
2018-11-29T05:32:57.938Z,69.93
2018-11-29T05:35:26.473Z,70.52
2018-11-29T05:37:54.944Z,68.27
2018-11-29T05:40:23.457Z,81.42
2018-11-29T05:42:52.264Z,71.83
2018-11-29T05:45:20.736Z,71.05
2018-11-29T05:47:49.243Z,65.50
2018-11-29T05:50:18.152Z,61.50
2018-11-29T05:52:46.751Z,62.40
2018-11-29T06:00:13.662Z,62.30
2018-11-29T06:02:42.439Z,73.70
2018-11-29T06:05:12.183Z,61.53
2018-11-29T06:07:40.757Z,65.10
2018-11-29T06:10:10.641Z,70.27
2018-11-29T06:12:40.112Z,62.80
2018-11-29T06:15:10.531Z,66.10
2018-11-29T06:17:39.079Z,72.27
2018-11-29T06:20:13.996Z,78.27
2018-11-29T06:22:42.459Z,66.67
2018-11-29T06:25:11.320Z,74.93
2018-11-29T06:27:40.199Z,62.53
2018-11-29T06:30:16.725Z,69.50
2018-11-29T06:32:45.935Z,71.47
2018-11-29T06:40:16.319Z,66.40
2018-11-29T06:42:44.959Z,63.13
2018-11-29T06:45:17.311Z,56.15
2018-11-29T06:47:46.297Z,64.87
2018-11-29T06:55:20.073Z,62.70
2018-11-29T06:57:48.624Z,55.93
2018-11-29T07:00:26.172Z,62.27
2018-11-29T07:02:54.651Z,61.53
2018-11-29T07:05:23.821Z,63.65
2018-11-29T07:07:52.391Z,67.87
2018-11-29T07:10:26.123Z,58.70
2018-11-29T07:12:54.639Z,72.90
2018-11-29T07:15:23.189Z,65.60
2018-11-29T07:17:52.320Z,63.73
2018-11-29T07:20:21.163Z,67.45
2018-11-29T07:22:49.655Z,67.17
2018-11-29T07:25:18.308Z,60.57
2018-11-29T07:27:46.870Z,63.73
2018-11-29T07:35:13.404Z,63.30
2018-11-29T07:37:42.264Z,61.33
2018-11-29T07:40:12.119Z,61.03
2018-11-29T07:42:41.925Z,63.90
2018-11-29T07:45:15.243Z,53.33
2018-11-29T07:47:44.559Z,57.23
2018-11-29T07:50:17.554Z,55.12
2018-11-29T07:52:46.134Z,52.93
2018-11-29T07:55:19.053Z,55.27
2018-11-29T07:57:48.764Z,49.75
2018-11-29T08:00:17.574Z,53.23
2018-11-29T08:02:46.113Z,54.50
2018-11-29T08:05:18.202Z,57.98
2018-11-29T08:07:47.921Z,49.03
2018-11-29T08:10:19.788Z,54.83
2018-11-29T08:12:48.744Z,48.03
2018-11-29T08:15:18.967Z,45.80
2018-11-29T08:17:48.039Z,48.07
2018-11-29T08:20:20.055Z,48.78
2018-11-29T08:22:48.508Z,50.20
2018-11-29T08:25:17.792Z,52.00
2018-11-29T08:27:46.675Z,47.20
2018-11-29T08:35:17.240Z,51.80
2018-11-29T08:37:46.769Z,50.73
2018-11-29T08:40:18.663Z,48.70
2018-11-29T08:42:47.179Z,48.77
2018-11-29T08:45:18.071Z,41.14
2018-11-29T08:47:46.703Z,46.10
2018-11-29T08:50:16.443Z,45.80
2018-11-29T08:52:45.753Z,40.97
2018-11-29T09:00:20.704Z,40.55
2018-11-29T09:02:49.724Z,37.67
2018-11-29T09:05:18.441Z,41.53
2018-11-29T09:07:47.900Z,42.43
2018-11-29T09:10:19.928Z,43.80
2018-11-29T09:12:49.198Z,43.30
2018-11-29T09:15:18.175Z,38.92
2018-11-29T09:17:46.931Z,35.33
2018-11-29T09:25:18.286Z,35.93
2018-11-29T09:27:47.076Z,36.10
2018-11-29T09:30:22.492Z,33.42
2018-11-29T09:32:52.888Z,33.37
2018-11-29T09:35:21.914Z,36.85
2018-11-29T09:37:50.416Z,34.70
2018-11-29T09:40:19.165Z,34.13
2018-11-29T09:42:47.756Z,34.13
2018-11-29T09:45:19.019Z,34.23
2018-11-29T09:47:48.719Z,31.67
2018-11-29T09:50:18.624Z,30.55
2018-11-29T09:52:47.175Z,33.80
2018-11-29T09:55:18.010Z,31.12
2018-11-29T09:57:47.400Z,30.60
2018-11-29T10:00:27.738Z,36.08
2018-11-29T10:03:10.188Z,30.37
2018-11-29T10:05:38.966Z,32.57
2018-11-29T10:08:11.903Z,30.97
2018-11-29T10:10:37.274Z,33.50
2018-11-29T10:13:06.659Z,34.87
2018-11-29T10:15:35.169Z,37.40
2018-11-29T10:18:04.565Z,35.10
2018-11-29T10:20:34.311Z,38.53
2018-11-29T10:23:02.806Z,33.20
2018-11-29T10:25:32.193Z,34.73
2018-11-29T10:28:04.007Z,42.90
2018-11-29T10:30:35.719Z,44.57
2018-11-29T10:33:04.185Z,49.33
2018-11-29T10:35:33.180Z,38.63
2018-11-29T10:38:02.000Z,37.50
2018-11-29T10:40:30.554Z,40.75
2018-11-29T10:42:59.528Z,40.87
2018-11-29T10:45:28.777Z,45.77
2018-11-29T10:47:58.216Z,50.37
2018-11-29T10:50:26.739Z,45.43
2018-11-29T10:52:55.228Z,48.40
2018-11-29T10:55:23.744Z,43.90
2018-11-29T10:57:52.484Z,51.63
2018-11-29T11:00:28.916Z,50.45
2018-11-29T11:03:06.772Z,49.85
2018-11-29T11:05:35.964Z,49.77
2018-11-29T11:08:08.261Z,49.45
2018-11-29T11:10:33.836Z,50.13
2018-11-29T11:13:02.347Z,53.83
2018-11-29T11:15:30.860Z,51.68
2018-11-29T11:17:59.359Z,58.83
2018-11-29T11:20:27.907Z,47.80
2018-11-29T11:22:56.396Z,48.25
2018-11-29T11:25:25.675Z,54.63
2018-11-29T11:27:54.180Z,54.13
2018-11-29T11:30:23.498Z,47.23
2018-11-29T11:32:53.362Z,53.57
2018-11-29T11:35:21.846Z,42.87
2018-11-29T11:37:50.919Z,47.65
2018-11-29T11:40:19.407Z,60.70
2018-11-29T11:42:48.103Z,47.70
2018-11-29T11:45:18.481Z,42.26
2018-11-29T11:47:47.484Z,49.30
2018-11-29T11:50:21.473Z,51.00
2018-11-29T11:52:50.516Z,51.97
2018-11-29T11:55:19.465Z,50.43
2018-11-29T11:57:48.503Z,49.48
2018-11-29T12:00:22.192Z,49.98
2018-11-29T12:02:53.468Z,49.57
2018-11-29T12:05:21.965Z,50.13
2018-11-29T12:07:50.921Z,50.00
2018-11-29T12:10:19.405Z,50.70
2018-11-29T12:12:47.980Z,50.87
2018-11-29T12:15:17.553Z,49.35
2018-11-29T12:17:47.144Z,49.00
2018-11-29T12:20:20.444Z,52.58
2018-11-29T12:22:49.170Z,52.07
2018-11-29T12:25:20.683Z,50.95
2018-11-29T12:27:50.220Z,46.77
2018-11-29T12:30:34.879Z,51.88
2018-11-29T12:33:05.760Z,54.37
2018-11-29T12:35:34.450Z,55.03
2018-11-29T12:38:03.357Z,49.33
2018-11-29T12:40:32.577Z,55.13
2018-11-29T12:43:01.467Z,48.13
2018-11-29T12:45:29.972Z,49.43
2018-11-29T12:48:06.580Z,44.67
2018-11-29T12:50:38.391Z,48.40
2018-11-29T12:53:07.572Z,49.53
2018-11-29T12:55:40.646Z,50.40
2018-11-29T12:58:09.184Z,45.87
2018-11-29T13:00:38.083Z,43.27
2018-11-29T13:05:37.428Z,55.17
2018-11-29T13:08:06.896Z,56.20
2018-11-29T13:10:35.451Z,53.23
2018-11-29T13:13:04.337Z,51.13
2018-11-29T13:15:34.618Z,53.15
2018-11-29T13:18:05.987Z,54.73
2018-11-29T13:20:34.505Z,49.03
2018-11-29T13:23:03.016Z,57.20
2018-11-29T13:25:31.945Z,58.33
2018-11-29T13:28:00.431Z,50.60
2018-11-29T13:30:28.951Z,52.53
2018-11-29T13:32:57.849Z,50.30
2018-11-29T13:35:28.942Z,59.93
2018-11-29T13:38:00.103Z,51.35
2018-11-29T13:40:29.176Z,49.70
2018-11-29T13:42:57.732Z,48.50
2018-11-29T13:45:26.956Z,48.35
2018-11-29T13:47:56.676Z,56.92
2018-11-29T13:50:25.172Z,55.03
2018-11-29T13:52:54.319Z,55.53
2018-11-29T13:55:22.841Z,53.77
2018-11-29T13:57:51.708Z,59.10
2018-11-29T14:00:22.196Z,59.97
2018-11-29T14:02:53.944Z,53.47
2018-11-29T14:05:22.448Z,52.93
2018-11-29T14:07:51.613Z,54.77
2018-11-29T14:10:22.143Z,56.47
2018-11-29T14:12:53.034Z,53.23
2018-11-29T14:15:22.912Z,57.97
2018-11-29T14:17:51.440Z,51.63
2018-11-29T14:20:19.976Z,59.97
2018-11-29T14:22:48.491Z,49.03
2018-11-29T14:25:18.672Z,51.60
2018-11-29T14:27:50.428Z,60.53
2018-11-29T14:30:24.825Z,53.10
2018-11-29T14:32:54.933Z,59.87
2018-11-29T14:35:24.104Z,57.13
2018-11-29T14:37:52.600Z,62.53
2018-11-29T14:40:24.315Z,61.63
2018-11-29T14:42:53.345Z,64.73
2018-11-29T14:45:26.033Z,54.13
2018-11-29T14:47:54.991Z,52.80
2018-11-29T14:50:33.734Z,63.75
2018-11-29T14:53:02.243Z,53.63
2018-11-29T14:55:30.768Z,56.70
2018-11-29T14:57:59.644Z,59.57
2018-11-29T15:00:28.138Z,59.50
2018-11-29T15:02:57.971Z,56.40
2018-11-29T15:05:29.328Z,55.73
2018-11-29T15:07:57.813Z,59.40
2018-11-29T15:10:26.313Z,55.88
2018-11-29T15:12:54.935Z,53.17
2018-11-29T15:15:24.172Z,53.20
2018-11-29T15:17:55.956Z,55.43
2018-11-29T15:20:27.229Z,55.08
2018-11-29T15:22:54.715Z,54.27
2018-11-29T15:25:24.012Z,58.77
2018-11-29T15:27:52.780Z,56.77
2018-11-29T15:30:23.299Z,59.40
2018-11-29T15:32:52.611Z,63.40
2018-11-29T15:35:23.036Z,54.50
2018-11-29T15:37:51.579Z,56.13
2018-11-29T15:40:21.120Z,58.75
2018-11-29T15:42:50.792Z,52.27
2018-11-29T15:45:22.808Z,62.20
2018-11-29T15:47:52.973Z,58.87
2018-11-29T15:50:22.477Z,56.42
2018-11-29T15:52:51.024Z,63.37
2018-11-29T15:55:21.352Z,56.10
2018-11-29T15:57:50.804Z,62.87
2018-11-29T16:00:25.224Z,60.53
2018-11-29T16:02:54.452Z,62.53
2018-11-29T16:05:23.022Z,64.83
2018-11-29T16:07:52.037Z,66.90
2018-11-29T16:10:21.928Z,65.87
2018-11-29T16:12:50.706Z,57.88
2018-11-29T16:15:19.920Z,61.10
2018-11-29T16:17:49.359Z,61.77
2018-11-29T16:20:21.264Z,57.88
2018-11-29T16:22:50.652Z,56.90
2018-11-29T16:25:19.215Z,59.65
2018-11-29T16:27:47.922Z,62.20
2018-11-29T16:30:50.627Z,58.13
2018-11-29T16:33:22.024Z,69.80
2018-11-29T16:35:51.027Z,53.27
2018-11-29T16:38:19.540Z,56.37
2018-11-29T16:40:48.267Z,59.17
2018-11-29T16:43:17.593Z,58.65
2018-11-29T16:45:46.576Z,56.97
2018-11-29T16:53:10.527Z,60.10
2018-11-29T16:55:39.024Z,58.13
2018-11-29T16:58:09.097Z,65.63
2018-11-29T17:00:37.703Z,64.27
2018-11-29T17:03:06.665Z,62.17
2018-11-29T17:05:36.584Z,66.53
2018-11-29T17:08:05.386Z,62.00
2018-11-29T17:10:33.901Z,68.43
2018-11-29T17:13:05.802Z,66.62
2018-11-29T17:15:34.720Z,69.60
2018-11-29T17:18:05.021Z,73.57
2018-11-29T17:20:33.524Z,56.83
2018-11-29T17:23:03.017Z,67.73
2018-11-29T17:25:31.496Z,66.80
2018-11-29T17:27:59.983Z,65.93
2018-11-29T17:30:30.776Z,64.40
2018-11-29T17:32:59.683Z,61.10
2018-11-29T17:35:28.176Z,63.17
2018-11-29T17:37:58.489Z,62.53
2018-11-29T17:40:27.095Z,66.93
2018-11-29T17:42:56.321Z,61.70
2018-11-29T17:45:26.988Z,63.42
2018-11-29T17:47:57.338Z,60.78
2018-11-29T17:50:28.160Z,63.53
2018-11-29T17:52:56.684Z,72.73
2018-11-29T17:55:25.213Z,110.17
2018-11-29T17:57:55.159Z,65.57
2018-11-29T18:00:25.009Z,77.93
2018-11-29T18:02:54.151Z,73.70
2018-11-29T18:05:22.728Z,66.50
2018-11-29T18:07:51.208Z,67.43
2018-11-29T18:10:21.916Z,77.73
2018-11-29T18:12:54.822Z,84.30
2018-11-29T18:15:25.938Z,109.33
2018-11-29T18:17:54.424Z,107.70
2018-11-29T18:20:23.284Z,85.60
2018-11-29T18:22:52.689Z,69.43
2018-11-29T18:25:21.830Z,74.75
2018-11-29T18:27:51.593Z,66.20
2018-11-29T18:30:21.279Z,63.07
2018-11-29T18:32:50.016Z,64.87
2018-11-29T18:35:19.513Z,61.95
2018-11-29T18:37:48.671Z,62.67
2018-11-29T18:40:21.013Z,67.82
2018-11-29T18:42:58.136Z,67.35
2018-11-29T18:45:27.390Z,62.13
2018-11-29T18:47:56.864Z,63.90
2018-11-29T18:50:26.456Z,61.45
2018-11-29T18:52:55.931Z,68.53
2018-11-29T18:55:25.735Z,75.17
2018-11-29T18:57:55.496Z,68.10
2018-11-29T19:00:26.821Z,69.20
2018-11-29T19:02:57.180Z,62.70
2018-11-29T19:05:24.084Z,60.43
2018-11-29T19:07:53.352Z,60.33
2018-11-29T19:10:22.277Z,56.63
2018-11-29T19:12:57.106Z,63.57
2018-11-29T19:15:26.560Z,63.00
2018-11-29T19:17:55.209Z,64.60
2018-11-29T19:20:24.534Z,69.53
2018-11-29T19:22:53.229Z,64.77
2018-11-29T19:25:21.708Z,65.30
2018-11-29T19:27:51.202Z,68.93
2018-11-29T19:30:22.994Z,62.83
2018-11-29T19:32:53.660Z,58.93
2018-11-29T19:35:22.232Z,60.47
2018-11-29T19:37:50.849Z,59.00
2018-11-29T19:40:19.540Z,64.58
2018-11-29T19:42:48.056Z,67.83
2018-11-29T19:45:17.697Z,61.82
2018-11-29T19:47:46.567Z,61.50
2018-11-29T19:55:17.596Z,59.20
2018-11-29T19:57:46.152Z,63.73
2018-11-29T20:05:10.601Z,58.17
2018-11-29T20:07:39.271Z,66.27
2018-11-29T20:10:11.331Z,62.10
2018-11-29T20:12:41.653Z,55.00
2018-11-29T20:15:24.770Z,58.63
2018-11-29T20:17:54.450Z,60.73
2018-11-29T20:20:23.265Z,55.43
2018-11-29T20:22:52.398Z,64.00
2018-11-29T20:25:22.857Z,60.67
2018-11-29T20:27:51.379Z,55.90
2018-11-29T20:30:21.048Z,58.17
2018-11-29T20:32:52.088Z,57.57
2018-11-29T20:35:20.589Z,64.45
2018-11-29T20:37:50.340Z,66.40
2018-11-29T20:40:22.991Z,55.80
2018-11-29T20:42:52.684Z,62.15
2018-11-29T20:45:30.067Z,60.12
2018-11-29T20:47:58.718Z,61.83
2018-11-29T20:50:29.321Z,60.90
2018-11-29T20:53:00.413Z,66.13
2018-11-29T20:55:31.043Z,61.27
2018-11-29T20:57:59.835Z,64.70
2018-11-29T21:00:28.642Z,59.15
2018-11-29T21:02:57.296Z,62.03
2018-11-29T21:05:26.073Z,65.37
2018-11-29T21:07:58.740Z,66.83
2018-11-29T21:10:27.429Z,59.38
2018-11-29T21:12:56.866Z,57.53
2018-11-29T21:15:25.385Z,62.25
2018-11-29T21:17:53.889Z,58.70
2018-11-29T21:20:22.333Z,55.30
2018-11-29T21:22:52.399Z,59.83
2018-11-29T21:25:22.250Z,60.33
2018-11-29T21:27:52.777Z,62.90
2018-11-29T21:30:22.392Z,66.07
2018-11-29T21:32:51.728Z,66.53
2018-11-29T21:35:21.729Z,63.60
2018-11-29T21:37:51.398Z,60.07
2018-11-29T21:40:28.651Z,59.35
2018-11-29T21:42:57.374Z,58.00
2018-11-29T21:45:25.840Z,61.08
2018-11-29T21:47:54.503Z,56.10
2018-11-29T21:50:23.051Z,57.67
2018-11-29T21:52:52.978Z,63.30
2018-11-29T21:55:21.479Z,56.00
2018-11-29T21:57:50.031Z,64.00
2018-11-29T22:00:21.029Z,62.90
2018-11-29T22:02:53.944Z,63.00
2018-11-29T22:05:22.518Z,59.45
2018-11-29T22:07:51.129Z,69.33
2018-11-29T22:10:20.079Z,59.70
2018-11-29T22:12:48.881Z,66.10
2018-11-29T22:15:17.516Z,64.77
2018-11-29T22:18:27.273Z,56.90
2018-11-29T22:20:57.265Z,62.60
2018-11-29T22:23:26.080Z,63.00
2018-11-29T22:25:55.761Z,74.43
2018-11-29T22:28:24.495Z,67.17
2018-11-29T22:30:53.743Z,67.97
2018-11-29T22:33:23.197Z,63.97
2018-11-29T22:35:52.363Z,61.63
2018-11-29T22:38:21.022Z,59.55
2018-11-29T22:40:50.165Z,62.10
2018-11-29T22:43:18.660Z,71.93
2018-11-29T22:45:47.164Z,63.67
2018-11-29T22:48:17.460Z,62.03
2018-11-29T22:50:46.178Z,67.97
2018-11-29T22:58:14.728Z,69.27
2018-11-29T23:00:48.728Z,67.70
2018-11-29T23:03:17.507Z,59.42
2018-11-29T23:05:46.770Z,64.00
2018-11-29T23:13:09.183Z,72.60
2018-11-29T23:15:38.139Z,71.07
2018-11-29T23:18:07.407Z,65.20
2018-11-29T23:20:36.463Z,62.70
2018-11-29T23:23:06.760Z,69.63
2018-11-29T23:25:35.556Z,75.97
2018-11-29T23:28:05.584Z,74.93
2018-11-29T23:30:34.107Z,66.07
2018-11-29T23:33:02.597Z,77.47
2018-11-29T23:35:31.151Z,72.65
2018-11-29T23:37:59.661Z,66.57
2018-11-29T23:40:28.180Z,69.47
2018-11-29T23:42:57.087Z,65.80
2018-11-29T23:45:25.613Z,69.10
2018-11-29T23:47:54.087Z,71.33
2018-11-29T23:50:22.640Z,69.27
2018-11-29T23:52:51.123Z,72.50
2018-11-29T23:55:21.182Z,65.30
2018-11-29T23:57:49.799Z,68.07
